Time;durP1;ratioP1;P1;durP2;ratioP2;P2;SDS_P1;SDS_P2;PMS_P1;PMS_P2;Temp;Humidity;BMP_temperature;BMP_pressure;BME280_temperature;BME280_humidity;BME280_pressure;Samples;Min_cycle;Max_cycle;Signal;HPM_P1;HPM_P2
2021/05/02 00:00:32;;;;;;;7.47;3.57;;;;;;;;;;12974176;22;20174;-80
2021/05/02 00:05:36;;;;;;;7.37;3.60;;;;;;;;;;12983114;22;20174;-78
2021/05/02 00:10:38;;;;;;;6.10;3.70;;;;;;;;;;12977804;22;20212;-77
2021/05/02 00:15:40;;;;;;;7.00;3.57;;;;;;;;;;12975186;22;20197;-78
2021/05/02 00:20:45;;;;;;;9.70;3.27;;;;;;;;;;12979565;22;20224;-78
2021/05/02 00:25:47;;;;;;;8.40;3.60;;;;;;;;;;12980674;22;20166;-77
2021/05/02 00:30:50;;;;;;;6.60;3.60;;;;;;;;;;12975050;22;20667;-79
2021/05/02 00:35:53;;;;;;;6.20;3.17;;;;;;;;;;12981168;22;20240;-78
2021/05/02 00:40:56;;;;;;;4.90;2.80;;;;;;;;;;12978147;22;20181;-77
2021/05/02 00:46:01;;;;;;;6.87;3.13;;;;;;;;;;12978716;22;20178;-78
2021/05/02 00:51:06;;;;;;;9.80;3.33;;;;;;;;;;12984247;22;20208;-78
2021/05/02 00:56:13;;;;;;;12.03;3.20;;;;;;;;;;13005706;22;20610;-78
2021/05/02 01:01:18;;;;;;;5.60;2.70;;;;;;;;;;12978479;22;20162;-79
2021/05/02 01:06:24;;;;;;;5.17;2.77;;;;;;;;;;12985935;22;20174;-78
2021/05/02 01:11:26;;;;;;;4.83;2.50;;;;;;;;;;12981255;22;20556;-78
2021/05/02 01:16:29;;;;;;;8.57;2.57;;;;;;;;;;12979683;22;20593;-78
2021/05/02 01:21:35;;;;;;;5.67;2.60;;;;;;;;;;12984787;22;20178;-80
2021/05/02 01:26:39;;;;;;;6.30;2.47;;;;;;;;;;13006340;22;20952;-79
2021/05/02 01:31:42;;;;;;;4.87;2.73;;;;;;;;;;12981722;22;20784;-82
2021/05/02 01:36:45;;;;;;;8.40;2.73;;;;;;;;;;12985910;22;20185;-79
2021/05/02 01:41:48;;;;;;;6.07;2.40;;;;;;;;;;12982078;22;20205;-80
2021/05/02 01:46:53;;;;;;;7.77;2.93;;;;;;;;;;12980646;22;20269;-80
2021/05/02 01:51:56;;;;;;;7.70;2.70;;;;;;;;;;12983055;22;20895;-80
2021/05/02 01:57:00;;;;;;;7.43;2.90;;;;;;;;;;12981166;22;20169;-79
2021/05/02 02:02:03;;;;;;;8.43;2.87;;;;;;;;;;12999747;22;20182;-79
2021/05/02 02:07:07;;;;;;;8.00;2.77;;;;;;;;;;12985082;22;20671;-80
2021/05/02 02:12:11;;;;;;;7.60;2.70;;;;;;;;;;13006164;22;20282;-80
2021/05/02 02:17:14;;;;;;;6.43;2.73;;;;;;;;;;12978972;22;20581;-79
2021/05/02 02:22:18;;;;;;;6.37;3.07;;;;;;;;;;13004765;22;20181;-79
2021/05/02 02:27:22;;;;;;;8.70;3.50;;;;;;;;;;13004160;22;20236;-80
2021/05/02 02:32:24;;;;;;;5.77;3.30;;;;;;;;;;12975331;22;20607;-79
2021/05/02 02:37:27;;;;;;;8.90;3.90;;;;;;;;;;12981904;22;20188;-79
2021/05/02 02:42:30;;;;;;;6.40;3.67;;;;;;;;;;12980961;22;20177;-79
2021/05/02 02:47:34;;;;;;;7.73;3.70;;;;;;;;;;13001192;22;20177;-79
2021/05/02 02:52:42;;;;;;;8.80;3.80;;;;;;;;;;13007636;22;20206;-79
2021/05/02 02:57:48;;;;;;;7.10;3.70;;;;;;;;;;12982343;22;20170;-79
2021/05/02 03:02:51;;;;;;;8.53;3.90;;;;;;;;;;13003332;22;20520;-79
2021/05/02 03:07:53;;;;;;;6.50;3.60;;;;;;;;;;12980339;22;20622;-80
2021/05/02 03:12:56;;;;;;;8.70;4.07;;;;;;;;;;13003688;22;20209;-80
2021/05/02 03:18:03;;;;;;;9.17;4.40;;;;;;;;;;12977016;22;20193;-80
2021/05/02 03:23:06;;;;;;;9.07;4.60;;;;;;;;;;12984434;22;20516;-80
2021/05/02 03:28:11;;;;;;;13.03;4.90;;;;;;;;;;12983060;22;20526;-79
2021/05/02 03:33:15;;;;;;;9.53;4.30;;;;;;;;;;12978424;22;20201;-79
2021/05/02 03:38:21;;;;;;;12.47;4.60;;;;;;;;;;12980546;22;20284;-79
2021/05/02 03:43:25;;;;;;;9.17;4.10;;;;;;;;;;12982304;22;20369;-79
2021/05/02 03:48:27;;;;;;;8.23;4.17;;;;;;;;;;12979287;22;20174;-80
2021/05/02 03:53:28;;;;;;;9.13;4.33;;;;;;;;;;13006458;22;20507;-80
2021/05/02 03:58:31;;;;;;;10.27;3.80;;;;;;;;;;12978770;22;20204;-80
2021/05/02 04:03:33;;;;;;;5.60;3.60;;;;;;;;;;12978497;22;20198;-79
2021/05/02 04:08:36;;;;;;;7.20;3.47;;;;;;;;;;13002945;22;20189;-79
2021/05/02 04:13:39;;;;;;;6.00;3.07;;;;;;;;;;12981184;22;20202;-81
2021/05/02 04:18:41;;;;;;;8.20;3.43;;;;;;;;;;12977779;22;20200;-81
2021/05/02 04:23:43;;;;;;;10.60;3.67;;;;;;;;;;12985396;22;20616;-80
2021/05/02 04:28:46;;;;;;;8.57;3.83;;;;;;;;;;12977675;22;20627;-80
2021/05/02 04:33:48;;;;;;;6.83;3.87;;;;;;;;;;12979206;22;20213;-79
2021/05/02 04:38:50;;;;;;;7.00;3.77;;;;;;;;;;12979851;22;20627;-79
2021/05/02 04:43:54;;;;;;;8.27;3.90;;;;;;;;;;12980164;22;20338;-80
2021/05/02 04:48:56;;;;;;;7.07;3.77;;;;;;;;;;12975452;22;20174;-80
2021/05/02 04:53:58;;;;;;;8.80;3.73;;;;;;;;;;13003433;22;20219;-78
2021/05/02 04:59:01;;;;;;;6.67;3.13;;;;;;;;;;12999766;22;20646;-79
2021/05/02 05:04:04;;;;;;;8.67;3.60;;;;;;;;;;12976218;22;21038;-79
2021/05/02 05:09:06;;;;;;;8.13;3.10;;;;;;;;;;13002545;22;20499;-80
2021/05/02 05:14:09;;;;;;;5.10;2.60;;;;;;;;;;13001588;22;20201;-80
2021/05/02 05:19:13;;;;;;;5.77;3.00;;;;;;;;;;12975530;22;20608;-80
2021/05/02 05:24:15;;;;;;;4.97;2.80;;;;;;;;;;12983317;22;20273;-79
2021/05/02 05:29:18;;;;;;;4.40;2.60;;;;;;;;;;12978895;22;20710;-80
2021/05/02 05:34:21;;;;;;;8.30;2.83;;;;;;;;;;13006324;22;20205;-81
2021/05/02 05:39:22;;;;;;;6.77;2.40;;;;;;;;;;12983889;22;20240;-79
2021/05/02 05:44:25;;;;;;;8.13;2.73;;;;;;;;;;12981294;22;20619;-79
2021/05/02 05:49:28;;;;;;;6.37;2.60;;;;;;;;;;13009055;22;20252;-81
2021/05/02 05:54:29;;;;;;;6.37;2.50;;;;;;;;;;13006413;22;20209;-79
2021/05/02 05:59:33;;;;;;;5.73;2.50;;;;;;;;;;12980377;22;20248;-81
2021/05/02 06:04:35;;;;;;;4.97;2.30;;;;;;;;;;12985672;22;20184;-80
2021/05/02 06:09:37;;;;;;;5.80;2.47;;;;;;;;;;12984626;22;20615;-79
2021/05/02 06:14:40;;;;;;;5.57;2.13;;;;;;;;;;12978595;22;20548;-80
2021/05/02 06:19:43;;;;;;;6.27;2.20;;;;;;;;;;12986156;22;20174;-79
2021/05/02 06:24:45;;;;;;;4.80;1.77;;;;;;;;;;13004852;22;20226;-79
2021/05/02 06:29:48;;;;;;;4.03;1.90;;;;;;;;;;12979642;22;20273;-79
2021/05/02 06:34:52;;;;;;;6.00;2.13;;;;;;;;;;12983851;22;20234;-79
2021/05/02 06:39:55;;;;;;;6.03;2.10;;;;;;;;;;12983439;22;20185;-79
2021/05/02 06:44:58;;;;;;;4.43;2.20;;;;;;;;;;12979460;22;20178;-79
2021/05/02 06:50:00;;;;;;;4.63;2.07;;;;;;;;;;12985589;22;20169;-80
2021/05/02 06:55:02;;;;;;;3.23;1.90;;;;;;;;;;12983629;22;20210;-79
2021/05/02 07:00:06;;;;;;;7.40;2.70;;;;;;;;;;12979409;22;20201;-80
2021/05/02 07:05:08;;;;;;;5.17;2.27;;;;;;;;;;12984310;22;20436;-80
2021/05/02 07:10:11;;;;;;;6.00;2.33;;;;;;;;;;12984443;22;20531;-79
2021/05/02 07:15:14;;;;;;;4.33;2.00;;;;;;;;;;12977743;22;20217;-78
2021/05/02 07:20:18;;;;;;;5.07;2.00;;;;;;;;;;13010092;22;20178;-79
2021/05/02 07:25:22;;;;;;;3.97;2.00;;;;;;;;;;13002986;22;20173;-80
2021/05/02 07:30:26;;;;;;;3.63;2.00;;;;;;;;;;12980810;22;20873;-79
2021/05/02 07:35:28;;;;;;;6.30;2.00;;;;;;;;;;12983149;22;20188;-78
2021/05/02 07:40:30;;;;;;;5.30;2.10;;;;;;;;;;12971163;22;20494;-80
2021/05/02 07:45:33;;;;;;;5.53;2.03;;;;;;;;;;13000652;22;20185;-79
2021/05/02 07:50:36;;;;;;;8.27;2.50;;;;;;;;;;12978444;22;20243;-80
2021/05/02 07:55:38;;;;;;;5.33;2.03;;;;;;;;;;12980561;22;20174;-80
2021/05/02 08:00:41;;;;;;;5.73;1.90;;;;;;;;;;12998944;22;20204;-80
2021/05/02 08:05:43;;;;;;;4.00;1.60;;;;;;;;;;13005952;22;20174;-80
2021/05/02 08:10:45;;;;;;;2.57;1.57;;;;;;;;;;12983749;22;20214;-80
2021/05/02 08:15:48;;;;;;;5.83;1.90;;;;;;;;;;12977454;22;20201;-80
2021/05/02 08:20:50;;;;;;;4.33;1.70;;;;;;;;;;12983989;22;20187;-79
2021/05/02 08:25:52;;;;;;;4.00;1.90;;;;;;;;;;12983576;22;20333;-80
2021/05/02 08:31:11;;;;;;;3.73;1.73;;;;;;;;;;12977097;22;20201;-81
2021/05/02 08:36:13;;;;;;;3.43;1.67;;;;;;;;;;13004484;22;20595;-80
2021/05/02 08:41:15;;;;;;;2.53;1.60;;;;;;;;;;12977634;22;20173;-80
2021/05/02 08:46:18;;;;;;;3.87;1.83;;;;;;;;;;12976981;22;20174;-76
2021/05/02 08:51:21;;;;;;;4.63;1.83;;;;;;;;;;12976101;22;20964;-74
2021/05/02 08:56:23;;;;;;;7.77;1.60;;;;;;;;;;12979779;22;20197;-75
2021/05/02 09:01:27;;;;;;;4.60;1.83;;;;;;;;;;12999819;22;20232;-77
2021/05/02 09:06:29;;;;;;;5.17;1.80;;;;;;;;;;13004925;22;20191;-77
2021/05/02 09:11:33;;;;;;;3.30;1.70;;;;;;;;;;12981060;22;20233;-77
2021/05/02 09:16:55;;;;;;;3.43;1.40;;;;;;;;;;12973185;22;20201;-77
2021/05/02 09:22:09;;;;;;;5.03;2.40;;;;;;;;;;12967232;22;20643;-77
2021/05/02 09:27:12;;;;;;;4.77;2.00;;;;;;;;;;13008129;22;20173;-78
2021/05/02 09:32:16;;;;;;;3.60;1.60;;;;;;;;;;12975996;22;20217;-86
2021/05/02 09:37:20;;;;;;;4.10;1.87;;;;;;;;;;12987735;22;20243;-78
2021/05/02 09:42:24;;;;;;;4.97;2.00;;;;;;;;;;12979684;22;20173;-78
2021/05/02 09:47:28;;;;;;;5.43;2.30;;;;;;;;;;12982542;22;20177;-79
2021/05/02 09:52:44;;;;;;;5.83;1.97;;;;;;;;;;13003085;22;20216;-78
2021/05/02 09:58:01;;;;;;;5.00;2.00;;;;;;;;;;13004501;22;20177;-77
2021/05/02 10:03:06;;;;;;;3.73;2.00;;;;;;;;;;12974963;22;20501;-75
2021/05/02 10:08:09;;;;;;;3.23;1.83;;;;;;;;;;13006304;22;20201;-74
2021/05/02 10:13:12;;;;;;;5.97;1.90;;;;;;;;;;12977226;22;20713;-76
2021/05/02 10:18:16;;;;;;;4.57;2.17;;;;;;;;;;12980119;22;20605;-78
2021/05/02 10:23:19;;;;;;;3.43;1.70;;;;;;;;;;12985417;22;20253;-76
2021/05/02 10:28:23;;;;;;;3.17;1.80;;;;;;;;;;12980445;22;20424;-78
2021/05/02 10:33:32;;;;;;;5.67;2.10;;;;;;;;;;12975564;22;20284;-79
2021/05/02 10:38:55;;;;;;;4.03;1.87;;;;;;;;;;13001735;22;20443;-78
2021/05/02 10:43:59;;;;;;;5.17;2.13;;;;;;;;;;12966578;22;20178;-78
2021/05/02 10:49:01;;;;;;;6.03;2.10;;;;;;;;;;12975231;22;20181;-78
2021/05/02 10:54:04;;;;;;;7.47;2.10;;;;;;;;;;13002966;22;20208;-77
2021/05/02 10:59:07;;;;;;;8.00;2.20;;;;;;;;;;12979507;22;20174;-77
2021/05/02 11:04:09;;;;;;;4.77;2.10;;;;;;;;;;12979855;22;20181;-76
2021/05/02 11:09:12;;;;;;;4.67;1.80;;;;;;;;;;12998040;22;20239;-77
2021/05/02 11:14:32;;;;;;;4.57;1.80;;;;;;;;;;12980682;22;20212;-80
2021/05/02 11:19:43;;;;;;;2.87;1.70;;;;;;;;;;12998383;22;20169;-79
2021/05/02 11:25:16;;;;;;;2.83;1.70;;;;;;;;;;12932937;22;20242;-88
2021/05/02 11:30:21;;;;;;;3.13;1.60;;;;;;;;;;12937905;22;20178;-78
2021/05/02 11:35:46;;;;;;;2.77;1.47;;;;;;;;;;12965044;22;20232;-77
2021/05/02 11:40:56;;;;;;;1.30;1.20;;;;;;;;;;12939516;22;20501;-77
2021/05/02 11:45:59;;;;;;;3.17;1.57;;;;;;;;;;12939129;22;20539;-77
2021/05/02 11:51:02;;;;;;;2.57;1.40;;;;;;;;;;12936809;22;20178;-75
2021/05/02 11:56:10;;;;;;;1.70;1.33;;;;;;;;;;12937758;22;20686;-75
2021/05/02 12:01:17;;;;;;;1.60;1.50;;;;;;;;;;12953627;22;20182;-76
2021/05/02 12:06:20;;;;;;;3.23;1.47;;;;;;;;;;12959982;22;20182;-76
2021/05/02 12:11:24;;;;;;;2.37;1.40;;;;;;;;;;12937373;22;20198;-76
2021/05/02 12:16:28;;;;;;;2.67;1.50;;;;;;;;;;12957368;22;20201;-83
2021/05/02 12:21:36;;;;;;;3.00;1.50;;;;;;;;;;12930591;22;20479;-88
2021/05/02 12:26:42;;;;;;;2.00;1.50;;;;;;;;;;12962495;22;20182;-91
2021/05/02 12:31:54;;;;;;;2.50;1.43;;;;;;;;;;12955326;22;20194;-81
2021/05/02 12:37:07;;;;;;;2.50;1.40;;;;;;;;;;12953031;22;20174;-75
2021/05/02 12:42:10;;;;;;;3.17;1.50;;;;;;;;;;12940835;22;20264;-73
2021/05/02 12:47:16;;;;;;;5.30;2.20;;;;;;;;;;12944704;22;20205;-74
2021/05/02 12:52:20;;;;;;;2.83;1.53;;;;;;;;;;12939295;22;20202;-74
2021/05/02 12:57:25;;;;;;;2.30;1.20;;;;;;;;;;12960750;22;20204;-74
2021/05/02 13:02:31;;;;;;;2.30;1.50;;;;;;;;;;12956004;22;20175;-74
2021/05/02 13:07:34;;;;;;;4.00;1.47;;;;;;;;;;12939184;22;20171;-75
2021/05/02 13:12:46;;;;;;;1.87;1.30;;;;;;;;;;12935958;22;20209;-75
2021/05/02 13:17:58;;;;;;;3.37;1.70;;;;;;;;;;12959705;22;20663;-75
2021/05/02 13:23:00;;;;;;;2.97;1.70;;;;;;;;;;12938116;22;20206;-75
2021/05/02 13:28:10;;;;;;;1.73;1.50;;;;;;;;;;12943044;22;20198;-86
2021/05/02 13:33:15;;;;;;;2.37;1.40;;;;;;;;;;12943059;22;20288;-75
2021/05/02 13:38:18;;;;;;;3.70;1.70;;;;;;;;;;12968976;22;20182;-77
2021/05/02 13:43:19;;;;;;;3.17;1.67;;;;;;;;;;12961705;22;20175;-77
2021/05/02 13:48:22;;;;;;;2.60;1.40;;;;;;;;;;12943953;22;20174;-77
2021/05/02 13:53:24;;;;;;;3.23;1.43;;;;;;;;;;12945812;22;20210;-77
2021/05/02 13:58:26;;;;;;;1.37;1.10;;;;;;;;;;12972878;22;20507;-76
2021/05/02 14:03:32;;;;;;;3.53;1.40;;;;;;;;;;12967301;22;20232;-77
2021/05/02 14:08:34;;;;;;;3.10;1.30;;;;;;;;;;12948242;22;20755;-77
2021/05/02 14:13:36;;;;;;;2.50;1.20;;;;;;;;;;12968421;22;20528;-76
2021/05/02 14:18:38;;;;;;;3.63;1.60;;;;;;;;;;12965786;22;20174;-76
2021/05/02 14:23:40;;;;;;;3.53;1.47;;;;;;;;;;12969802;22;20237;-76
2021/05/02 14:28:43;;;;;;;2.77;1.30;;;;;;;;;;12944261;22;20712;-76
2021/05/02 14:33:45;;;;;;;1.83;1.20;;;;;;;;;;12968376;22;20206;-76
2021/05/02 14:38:47;;;;;;;3.40;1.37;;;;;;;;;;12948519;22;20202;-76
2021/05/02 14:43:50;;;;;;;2.93;1.50;;;;;;;;;;12969893;22;20206;-76
2021/05/02 14:48:55;;;;;;;2.63;1.80;;;;;;;;;;12965188;22;20178;-76
2021/05/02 14:53:57;;;;;;;2.57;1.50;;;;;;;;;;12969577;22;20206;-75
2021/05/02 14:58:59;;;;;;;2.07;1.40;;;;;;;;;;12968013;22;20179;-76
2021/05/02 15:04:02;;;;;;;1.93;1.50;;;;;;;;;;12946011;22;20453;-75
2021/05/02 15:09:04;;;;;;;2.63;1.57;;;;;;;;;;12947329;22;20175;-76
2021/05/02 15:14:06;;;;;;;1.73;1.47;;;;;;;;;;12965938;22;20999;-77
2021/05/02 15:19:09;;;;;;;2.40;1.30;;;;;;;;;;12964505;22;20225;-76
2021/05/02 15:24:11;;;;;;;2.13;1.43;;;;;;;;;;12969940;22;20202;-75
2021/05/02 15:29:13;;;;;;;2.97;1.30;;;;;;;;;;12966810;22;20178;-75
2021/05/02 15:34:20;;;;;;;2.03;1.40;;;;;;;;;;12967545;22;20206;-76
2021/05/02 15:39:23;;;;;;;4.27;1.80;;;;;;;;;;12966150;22;20688;-77
2021/05/02 15:44:24;;;;;;;2.40;1.47;;;;;;;;;;12944588;22;20555;-76
2021/05/02 15:49:27;;;;;;;2.97;1.60;;;;;;;;;;12965582;22;20179;-77
2021/05/02 15:54:29;;;;;;;1.90;1.40;;;;;;;;;;12945537;22;20758;-76
2021/05/02 15:59:31;;;;;;;1.83;1.40;;;;;;;;;;12965045;22;20657;-77
2021/05/02 16:04:34;;;;;;;5.57;1.50;;;;;;;;;;12970836;22;20807;-77
2021/05/02 16:09:35;;;;;;;3.07;1.40;;;;;;;;;;12969061;22;20265;-77
2021/05/02 16:14:43;;;;;;;3.07;1.40;;;;;;;;;;12967278;22;20716;-77
2021/05/02 16:19:46;;;;;;;2.37;1.43;;;;;;;;;;12945548;22;20184;-77
2021/05/02 16:24:48;;;;;;;3.87;1.50;;;;;;;;;;12949722;22;20202;-77
2021/05/02 16:29:50;;;;;;;2.20;1.33;;;;;;;;;;12965019;22;20189;-76
2021/05/02 16:34:53;;;;;;;2.87;1.60;;;;;;;;;;12970776;22;20202;-78
2021/05/02 16:39:55;;;;;;;2.80;1.50;;;;;;;;;;12968036;22;20177;-76
2021/05/02 16:44:57;;;;;;;2.23;1.40;;;;;;;;;;12944977;22;20178;-76
2021/05/02 16:50:00;;;;;;;3.67;1.50;;;;;;;;;;12949708;22;20174;-76
2021/05/02 16:55:01;;;;;;;3.23;1.70;;;;;;;;;;12944822;22;20214;-76
2021/05/02 17:00:04;;;;;;;3.83;1.80;;;;;;;;;;12970917;22;20187;-83
2021/05/02 17:05:08;;;;;;;6.47;2.47;;;;;;;;;;12966900;22;20174;-77
2021/05/02 17:10:10;;;;;;;4.77;2.93;;;;;;;;;;12968527;22;20282;-77
2021/05/02 17:15:14;;;;;;;5.87;2.10;;;;;;;;;;12943322;22;21045;-84
2021/05/02 17:20:27;;;;;;;2.53;1.53;;;;;;;;;;12947837;22;20267;-76
2021/05/02 17:25:30;;;;;;;4.20;1.50;;;;;;;;;;12987264;22;20181;-79
2021/05/02 17:30:33;;;;;;;4.33;1.67;;;;;;;;;;13010917;22;20668;-75
2021/05/02 17:35:36;;;;;;;3.83;1.47;;;;;;;;;;13034812;22;20536;-75
2021/05/02 17:40:38;;;;;;;3.53;1.43;;;;;;;;;;13036808;22;20654;-77
2021/05/02 17:45:39;;;;;;;2.10;1.60;;;;;;;;;;13009111;22;20173;-76
2021/05/02 17:50:44;;;;;;;3.30;1.53;;;;;;;;;;13014935;22;20252;-78
2021/05/02 17:55:46;;;;;;;2.63;1.50;;;;;;;;;;13033448;22;20570;-77
2021/05/02 18:00:47;;;;;;;3.40;1.40;;;;;;;;;;13010524;22;20181;-77
2021/05/02 18:05:51;;;;;;;2.90;1.80;;;;;;;;;;13034656;22;20177;-77
2021/05/02 18:10:53;;;;;;;3.97;1.47;;;;;;;;;;13014833;22;20165;-77
2021/05/02 18:15:55;;;;;;;2.30;1.30;;;;;;;;;;13003268;22;20902;-76
2021/05/02 18:20:57;;;;;;;2.23;1.40;;;;;;;;;;13034383;22;20664;-78
2021/05/02 18:25:59;;;;;;;3.50;1.50;;;;;;;;;;13010767;22;20186;-78
2021/05/02 18:31:02;;;;;;;2.40;1.50;;;;;;;;;;13030947;22;20180;-77
2021/05/02 18:36:05;;;;;;;2.07;1.40;;;;;;;;;;13034621;22;20201;-76
2021/05/02 18:41:07;;;;;;;1.77;1.30;;;;;;;;;;13034225;22;20173;-77
2021/05/02 18:46:09;;;;;;;2.53;1.43;;;;;;;;;;13007068;22;20928;-77
2021/05/02 18:51:12;;;;;;;3.70;1.43;;;;;;;;;;13037493;22;20457;-76
2021/05/02 18:56:15;;;;;;;4.27;1.63;;;;;;;;;;13033364;22;20205;-76
2021/05/02 19:01:17;;;;;;;2.73;1.40;;;;;;;;;;13010903;22;20188;-77
2021/05/02 19:06:20;;;;;;;5.60;1.67;;;;;;;;;;13033750;22;20252;-77
2021/05/02 19:11:23;;;;;;;4.17;1.53;;;;;;;;;;13033172;22;20257;-76
2021/05/02 19:16:24;;;;;;;2.80;1.70;;;;;;;;;;13029058;22;20486;-76
2021/05/02 19:21:28;;;;;;;3.40;1.93;;;;;;;;;;13012456;22;20553;-77
2021/05/02 19:26:29;;;;;;;3.50;1.80;;;;;;;;;;13033745;22;20186;-78
2021/05/02 19:31:32;;;;;;;4.80;1.87;;;;;;;;;;13010025;22;20177;-77
2021/05/02 19:36:35;;;;;;;3.23;1.87;;;;;;;;;;13036940;22;20267;-76
2021/05/02 19:41:37;;;;;;;4.50;1.77;;;;;;;;;;13033725;22;20178;-76
2021/05/02 19:46:39;;;;;;;7.63;1.80;;;;;;;;;;13011544;22;20517;-75
2021/05/02 19:51:41;;;;;;;3.17;2.03;;;;;;;;;;13011695;22;20181;-76
2021/05/02 19:56:44;;;;;;;2.30;1.63;;;;;;;;;;13014342;22;20201;-76
2021/05/02 20:01:46;;;;;;;4.33;1.70;;;;;;;;;;13009090;22;20177;-74
2021/05/02 20:06:49;;;;;;;2.93;1.80;;;;;;;;;;13036563;22;20177;-76
2021/05/02 20:11:51;;;;;;;4.43;1.83;;;;;;;;;;13011613;22;20173;-76
2021/05/02 20:16:52;;;;;;;5.30;1.80;;;;;;;;;;13011283;22;20186;-76
2021/05/02 20:21:55;;;;;;;3.07;1.70;;;;;;;;;;13033512;22;20582;-76
2021/05/02 20:26:57;;;;;;;3.43;1.67;;;;;;;;;;13012339;22;20268;-75
2021/05/02 20:32:00;;;;;;;2.60;1.83;;;;;;;;;;13028971;22;20178;-76
2021/05/02 20:37:04;;;;;;;4.63;2.00;;;;;;;;;;13012165;22;20212;-76
2021/05/02 20:42:07;;;;;;;3.50;1.70;;;;;;;;;;13011391;22;20173;-78
2021/05/02 20:47:09;;;;;;;6.00;1.63;;;;;;;;;;13010823;22;20173;-78
2021/05/02 20:52:14;;;;;;;2.00;1.70;;;;;;;;;;13012416;22;20560;-77
2021/05/02 20:57:16;;;;;;;3.23;1.80;;;;;;;;;;13033764;22;20181;-75
2021/05/02 21:02:18;;;;;;;4.03;2.13;;;;;;;;;;13011252;22;20174;-77
2021/05/02 21:07:21;;;;;;;3.43;2.00;;;;;;;;;;13036700;22;20179;-76
2021/05/02 21:12:24;;;;;;;4.33;2.17;;;;;;;;;;13016179;22;20193;-77
2021/05/02 21:17:26;;;;;;;2.10;1.70;;;;;;;;;;13035712;22;20178;-77
2021/05/02 21:22:29;;;;;;;2.93;1.90;;;;;;;;;;13038130;22;20193;-75
2021/05/02 21:27:32;;;;;;;3.40;2.00;;;;;;;;;;13039214;22;20180;-78
2021/05/02 21:32:34;;;;;;;6.13;2.30;;;;;;;;;;13036722;22;20592;-77
2021/05/02 21:37:37;;;;;;;4.33;2.40;;;;;;;;;;13037367;22;20185;-76
2021/05/02 21:42:39;;;;;;;3.83;2.43;;;;;;;;;;13037430;22;20209;-76
2021/05/02 21:47:41;;;;;;;3.50;2.47;;;;;;;;;;13013472;22;20208;-76
2021/05/02 21:52:48;;;;;;;5.03;3.13;;;;;;;;;;13038764;22;20739;-76
2021/05/02 21:57:50;;;;;;;3.27;2.50;;;;;;;;;;13015017;22;20190;-77
2021/05/02 22:02:53;;;;;;;5.50;2.60;;;;;;;;;;13034749;22;20260;-78
2021/05/02 22:07:56;;;;;;;6.13;2.03;;;;;;;;;;13035483;22;20703;-77
2021/05/02 22:12:58;;;;;;;4.87;2.50;;;;;;;;;;13013361;22;20206;-77
2021/05/02 22:18:00;;;;;;;4.50;2.10;;;;;;;;;;13034364;22;20698;-77
2021/05/02 22:23:03;;;;;;;4.43;2.40;;;;;;;;;;13014857;22;20228;-77
2021/05/02 22:28:05;;;;;;;2.93;2.30;;;;;;;;;;13035142;22;20184;-77
2021/05/02 22:33:07;;;;;;;2.93;2.27;;;;;;;;;;13034365;22;20205;-78
2021/05/02 22:38:09;;;;;;;4.10;2.63;;;;;;;;;;13037305;22;20181;-76
2021/05/02 22:43:12;;;;;;;4.27;2.37;;;;;;;;;;13034487;22;20803;-77
2021/05/02 22:48:15;;;;;;;3.37;2.20;;;;;;;;;;13027253;22;20178;-77
2021/05/02 22:53:18;;;;;;;3.30;2.47;;;;;;;;;;13037384;22;20202;-77
2021/05/02 22:58:21;;;;;;;3.23;2.30;;;;;;;;;;13012085;22;20174;-77
2021/05/02 23:03:24;;;;;;;5.37;2.50;;;;;;;;;;13033291;22;20173;-77
2021/05/02 23:08:28;;;;;;;3.90;2.43;;;;;;;;;;13034328;22;20178;-77
2021/05/02 23:13:30;;;;;;;4.37;2.90;;;;;;;;;;13035116;22;20205;-76
2021/05/02 23:18:33;;;;;;;5.20;2.80;;;;;;;;;;13010248;22;20181;-76
2021/05/02 23:23:35;;;;;;;7.87;2.80;;;;;;;;;;13025037;22;20293;-77
2021/05/02 23:28:37;;;;;;;4.07;2.77;;;;;;;;;;13012130;22;20174;-77
2021/05/02 23:33:39;;;;;;;4.50;3.00;;;;;;;;;;13009943;22;20669;-76
2021/05/02 23:38:41;;;;;;;5.00;3.00;;;;;;;;;;13036091;22;20182;-77
2021/05/02 23:43:43;;;;;;;5.93;3.30;;;;;;;;;;13032672;22;20170;-77
2021/05/02 23:48:45;;;;;;;4.50;3.20;;;;;;;;;;13031008;22;20177;-76
2021/05/02 23:53:48;;;;;;;4.13;3.13;;;;;;;;;;13010256;22;20444;-78
2021/05/02 23:58:51;;;;;;;4.17;2.93;;;;;;;;;;13032043;22;20505;-77
